createdAt,value
2023-03-02T00:01:48.674Z,10.27
2023-03-02T00:04:28.670Z,9.40
2023-03-02T00:07:02.760Z,7.80
2023-03-02T00:09:33.219Z,10.63
2023-03-02T00:12:03.360Z,7.20
2023-03-02T00:14:35.792Z,9.70
2023-03-02T00:17:05.683Z,8.87
2023-03-02T00:19:37.373Z,7.37
2023-03-02T00:22:09.472Z,7.57
2023-03-02T00:24:43.789Z,10.37
2023-03-02T00:27:13.618Z,9.67
2023-03-02T00:29:46.345Z,8.60
2023-03-02T00:32:18.238Z,7.33
2023-03-02T00:34:48.016Z,8.57
2023-03-02T00:37:17.746Z,10.97
2023-03-02T00:39:47.963Z,8.50
2023-03-02T00:42:17.722Z,10.00
2023-03-02T00:44:50.165Z,7.53
2023-03-02T00:47:19.922Z,8.60
2023-03-02T00:49:49.718Z,9.17
2023-03-02T00:52:19.807Z,9.20
2023-03-02T00:54:49.588Z,10.77
2023-03-02T00:57:19.710Z,8.90
2023-03-02T00:59:52.092Z,8.40
2023-03-02T01:02:21.938Z,8.77
2023-03-02T01:04:53.284Z,11.50
2023-03-02T01:07:26.361Z,7.67
2023-03-02T01:09:56.104Z,8.73
2023-03-02T01:12:25.898Z,8.80
2023-03-02T01:14:58.719Z,7.53
2023-03-02T01:17:28.482Z,10.00
2023-03-02T01:19:58.321Z,7.47
2023-03-02T01:22:28.100Z,9.20
2023-03-02T01:24:58.919Z,7.13
2023-03-02T01:27:28.964Z,7.10
2023-03-02T01:30:01.332Z,8.47
2023-03-02T01:32:31.120Z,7.87
2023-03-02T01:35:00.947Z,8.60
2023-03-02T01:37:30.739Z,7.50
2023-03-02T01:40:02.763Z,7.27
2023-03-02T01:42:37.455Z,8.20
2023-03-02T01:45:37.066Z,7.47
2023-03-02T01:48:13.228Z,8.37
2023-03-02T01:50:43.478Z,7.97
2023-03-02T01:53:13.786Z,7.90
2023-03-02T01:55:44.293Z,8.83
2023-03-02T01:58:16.415Z,8.20
2023-03-02T02:00:47.896Z,7.93
2023-03-02T02:03:24.622Z,7.80
2023-03-02T02:06:03.241Z,8.43
2023-03-02T02:08:33.974Z,8.50
2023-03-02T02:11:09.433Z,7.40
2023-03-02T02:13:39.277Z,7.73
2023-03-02T02:16:10.047Z,8.10
2023-03-02T02:18:43.919Z,7.47
2023-03-02T02:21:14.397Z,7.67
2023-03-02T02:23:52.847Z,12.57
2023-03-02T02:26:30.892Z,12.83
2023-03-02T02:29:08.036Z,11.97
2023-03-02T02:31:43.318Z,10.63
2023-03-02T02:34:22.939Z,13.50
2023-03-02T02:36:56.971Z,13.47
2023-03-02T02:39:31.429Z,17.33
2023-03-02T02:42:55.088Z,22.87
2023-03-02T02:46:02.376Z,20.03
2023-03-02T02:49:00.913Z,23.83
2023-03-02T03:07:42.094Z,38.97
2023-03-02T03:17:12.774Z,34.20
2023-03-02T03:19:47.558Z,40.20
2023-03-02T03:22:36.784Z,42.73
2023-03-02T03:28:41.203Z,45.23
2023-03-02T03:31:11.001Z,42.07
2023-03-02T03:33:43.472Z,39.10
2023-03-02T03:36:13.369Z,38.03
2023-03-02T03:38:43.182Z,40.87
2023-03-02T03:41:13.031Z,36.77
2023-03-02T03:43:42.806Z,41.17
2023-03-02T03:46:18.093Z,37.00
2023-03-02T03:49:14.307Z,41.47
2023-03-02T03:52:07.220Z,43.20
2023-03-02T03:54:50.097Z,42.83
2023-03-02T03:57:27.354Z,43.07
2023-03-02T04:00:06.207Z,39.87
2023-03-02T04:12:51.089Z,50.23
2023-03-02T04:15:20.844Z,50.43
2023-03-02T04:17:50.933Z,57.83
2023-03-02T04:20:21.952Z,61.90
2023-03-02T04:22:54.027Z,71.23
2023-03-02T04:25:26.183Z,65.57
2023-03-02T04:27:58.728Z,70.67
2023-03-02T04:30:32.035Z,68.10
2023-03-02T04:33:01.817Z,72.77
2023-03-02T04:35:32.075Z,77.27
2023-03-02T04:38:03.382Z,85.27
2023-03-02T04:41:01.214Z,92.13
2023-03-02T04:51:24.328Z,116.93
2023-03-02T04:53:54.388Z,101.37
2023-03-02T04:56:25.139Z,112.50
2023-03-02T04:59:34.606Z,130.77
2023-03-02T05:02:06.201Z,133.17
2023-03-02T05:04:37.374Z,116.53
2023-03-02T05:07:09.870Z,125.70
2023-03-02T05:09:42.581Z,122.70
2023-03-02T05:12:15.235Z,125.67
2023-03-02T05:14:45.863Z,117.60
2023-03-02T05:17:28.781Z,125.90
2023-03-02T05:20:10.388Z,103.67
2023-03-02T05:22:43.028Z,115.40
2023-03-02T05:25:13.198Z,132.80
2023-03-02T05:27:43.059Z,121.40
2023-03-02T05:30:14.694Z,109.27
2023-03-02T05:32:45.243Z,122.43
2023-03-02T05:35:15.336Z,125.73
2023-03-02T05:37:47.756Z,128.13
2023-03-02T05:40:20.076Z,122.87
2023-03-02T05:42:50.821Z,131.80
2023-03-02T05:45:23.415Z,118.00
2023-03-02T05:47:54.546Z,119.40
2023-03-02T05:50:24.829Z,111.37
2023-03-02T05:52:58.371Z,108.93
2023-03-02T05:55:28.125Z,101.43
2023-03-02T05:57:58.428Z,103.07
2023-03-02T06:00:28.414Z,103.53
2023-03-02T06:02:59.258Z,98.60
2023-03-02T06:05:29.108Z,101.73
2023-03-02T06:08:03.553Z,88.13
2023-03-02T06:10:33.442Z,98.90
2023-03-02T06:13:06.451Z,104.37
2023-03-02T06:19:38.953Z,94.13
2023-03-02T06:32:44.620Z,70.63
2023-03-02T06:35:17.525Z,72.03
2023-03-02T06:37:47.418Z,65.47
2023-03-02T06:40:17.322Z,64.20
2023-03-02T06:42:49.929Z,71.47
2023-03-02T06:45:19.979Z,71.20
2023-03-02T06:47:49.799Z,73.47
2023-03-02T06:50:19.737Z,68.60
2023-03-02T06:52:49.545Z,66.40
2023-03-02T06:55:19.523Z,73.87
2023-03-02T06:57:52.130Z,69.30
2023-03-02T07:00:26.248Z,69.47
2023-03-02T07:02:56.844Z,67.43
2023-03-02T07:05:28.267Z,68.33
2023-03-02T07:08:01.036Z,69.83
2023-03-02T07:10:31.247Z,67.33
2023-03-02T07:13:03.861Z,59.23
2023-03-02T07:15:33.865Z,64.53
2023-03-02T07:18:06.755Z,74.60
2023-03-02T07:20:40.063Z,67.77
2023-03-02T07:23:10.244Z,67.43
2023-03-02T07:25:40.032Z,81.97
2023-03-02T07:28:12.580Z,82.30
2023-03-02T07:30:45.355Z,83.90
2023-03-02T07:33:17.310Z,84.93
2023-03-02T07:35:47.313Z,91.57
2023-03-02T07:38:17.349Z,92.10
2023-03-02T07:40:47.707Z,81.70
2023-03-02T07:43:20.492Z,82.87
2023-03-02T07:45:53.145Z,77.87
2023-03-02T07:48:23.508Z,79.63
2023-03-02T07:50:53.302Z,79.67
2023-03-02T07:53:23.087Z,82.57
2023-03-02T07:55:52.848Z,98.93
2023-03-02T07:58:25.370Z,81.63
2023-03-02T08:00:55.168Z,109.73
2023-03-02T08:03:24.986Z,105.80
2023-03-02T08:05:54.830Z,104.93
2023-03-02T08:08:24.611Z,84.83
2023-03-02T08:10:54.440Z,92.77
2023-03-02T08:13:26.807Z,112.77
2023-03-02T08:16:02.864Z,85.43
2023-03-02T08:18:32.782Z,90.03
2023-03-02T08:21:02.776Z,81.93
2023-03-02T08:23:32.922Z,88.87
2023-03-02T08:26:02.755Z,86.77
2023-03-02T08:28:35.212Z,79.27
2023-03-02T08:31:06.736Z,90.83
2023-03-02T08:33:36.858Z,86.97
2023-03-02T08:36:09.322Z,86.97
2023-03-02T08:38:39.318Z,81.70
2023-03-02T08:41:11.232Z,83.13
2023-03-02T08:43:44.208Z,74.50
2023-03-02T08:46:15.716Z,67.23
2023-03-02T08:48:45.640Z,66.43
2023-03-02T08:51:17.291Z,77.20
2023-03-02T08:53:50.541Z,79.87
2023-03-02T08:56:22.270Z,76.50
2023-03-02T08:58:55.523Z,68.37
2023-03-02T09:01:26.828Z,65.50
2023-03-02T09:03:57.739Z,62.67
2023-03-02T09:06:27.610Z,57.37
2023-03-02T09:08:57.421Z,56.77
2023-03-02T09:11:27.611Z,56.63
2023-03-02T09:14:00.016Z,57.53
2023-03-02T09:16:29.884Z,59.23
2023-03-02T09:18:59.964Z,55.03
2023-03-02T09:21:29.756Z,52.50
2023-03-02T09:23:59.806Z,51.97
2023-03-02T09:26:30.256Z,52.57
2023-03-02T09:29:02.668Z,51.33
2023-03-02T09:31:32.981Z,49.40
2023-03-02T09:34:03.138Z,53.83
2023-03-02T09:36:32.993Z,47.80
2023-03-02T09:39:08.600Z,47.80
2023-03-02T09:42:08.818Z,47.20
2023-03-02T09:45:16.893Z,44.27
2023-03-02T09:47:53.535Z,53.83
2023-03-02T09:50:34.879Z,54.13
2023-03-02T09:53:37.280Z,65.47
2023-03-02T09:56:15.607Z,65.77
2023-03-02T09:58:51.438Z,70.47
2023-03-02T10:01:35.434Z,61.90
2023-03-02T10:04:14.859Z,77.73
2023-03-02T10:06:44.994Z,66.27
2023-03-02T10:09:15.056Z,57.43
2023-03-02T10:11:58.954Z,54.20
2023-03-02T10:14:33.711Z,51.70
2023-03-02T10:17:23.439Z,58.50
2023-03-02T10:19:59.820Z,57.00
2023-03-02T10:22:33.412Z,49.47
2023-03-02T10:25:17.342Z,52.13
2023-03-02T10:27:53.285Z,48.23
2023-03-02T10:30:31.026Z,49.93
2023-03-02T10:33:12.309Z,40.73
2023-03-02T10:35:48.050Z,41.23
2023-03-02T10:38:22.970Z,36.43
2023-03-02T10:40:59.933Z,37.33
2023-03-02T10:43:34.964Z,39.93
2023-03-02T10:46:07.728Z,37.77
2023-03-02T10:48:51.430Z,41.13
2023-03-02T10:51:29.730Z,35.67
2023-03-02T10:54:07.304Z,36.57
2023-03-02T10:56:37.347Z,38.37
2023-03-02T10:59:30.435Z,40.23
2023-03-02T11:02:03.892Z,37.33
2023-03-02T11:04:36.407Z,37.87
2023-03-02T11:07:13.184Z,34.80
2023-03-02T11:09:43.389Z,36.43
2023-03-02T11:12:18.929Z,38.93
2023-03-02T11:14:48.828Z,33.80
2023-03-02T11:17:32.948Z,29.67
2023-03-02T11:20:07.120Z,27.67
2023-03-02T11:22:41.557Z,29.27
2023-03-02T11:25:23.491Z,31.60
2023-03-02T11:28:05.540Z,28.70
2023-03-02T11:30:39.233Z,29.60
2023-03-02T11:33:16.499Z,28.60
2023-03-02T11:35:55.729Z,24.77
2023-03-02T11:38:29.274Z,33.53
2023-03-02T11:41:03.421Z,30.30
2023-03-02T11:43:33.349Z,28.47
2023-03-02T11:46:13.917Z,28.83
2023-03-02T11:48:52.281Z,29.73
2023-03-02T11:51:27.522Z,27.53
2023-03-02T11:54:01.344Z,28.27
2023-03-02T11:56:34.351Z,25.30
2023-03-02T11:59:08.909Z,34.03
2023-03-02T12:01:40.472Z,34.03
2023-03-02T12:04:12.926Z,30.13
2023-03-02T12:06:46.331Z,30.73
2023-03-02T12:09:36.117Z,27.50
2023-03-02T12:12:35.470Z,27.60
2023-03-02T12:15:05.869Z,30.37
2023-03-02T12:17:39.819Z,27.17
2023-03-02T12:20:27.450Z,27.80
2023-03-02T12:23:10.878Z,31.30
2023-03-02T12:25:49.751Z,28.27
2023-03-02T12:28:33.451Z,29.33
2023-03-02T12:31:13.455Z,30.17
2023-03-02T12:33:50.261Z,26.60
2023-03-02T12:36:28.646Z,26.47
2023-03-02T12:39:16.651Z,26.53
2023-03-02T12:42:06.395Z,27.17
2023-03-02T12:44:49.468Z,28.30
2023-03-02T12:47:27.586Z,22.77
2023-03-02T12:50:00.842Z,26.47
2023-03-02T12:52:32.879Z,26.03
2023-03-02T12:55:08.837Z,27.03
2023-03-02T12:57:41.415Z,23.13
2023-03-02T13:00:19.486Z,28.03
2023-03-02T13:02:51.208Z,24.23
2023-03-02T13:05:23.310Z,25.67
2023-03-02T13:08:01.391Z,23.10
2023-03-02T13:10:40.029Z,22.90
2023-03-02T13:13:19.448Z,28.30
2023-03-02T13:15:53.990Z,25.63
2023-03-02T13:18:25.040Z,22.53
2023-03-02T13:20:55.978Z,25.70
2023-03-02T13:23:26.536Z,23.13
2023-03-02T13:26:01.121Z,21.90
2023-03-02T13:28:32.426Z,21.23
2023-03-02T13:31:04.339Z,22.33
2023-03-02T13:33:36.229Z,20.97
2023-03-02T13:36:06.248Z,22.07
2023-03-02T13:38:40.629Z,21.13
2023-03-02T13:41:23.761Z,18.93
2023-03-02T13:43:54.208Z,19.13
2023-03-02T13:46:36.522Z,18.97
2023-03-02T13:49:11.434Z,18.37
2023-03-02T13:51:44.000Z,18.60
2023-03-02T13:54:24.507Z,19.73
2023-03-02T13:56:57.136Z,20.23
2023-03-02T13:59:27.153Z,18.00
2023-03-02T14:01:58.170Z,19.47
2023-03-02T14:04:28.212Z,16.77
2023-03-02T14:06:58.443Z,16.20
2023-03-02T14:09:28.770Z,17.27
2023-03-02T14:12:01.762Z,17.87
2023-03-02T14:14:35.840Z,14.93
2023-03-02T14:17:19.699Z,16.37
2023-03-02T14:19:53.101Z,16.30
2023-03-02T14:22:23.328Z,14.37
2023-03-02T14:24:53.772Z,16.80
2023-03-02T14:27:31.385Z,17.10
2023-03-02T14:30:01.821Z,16.97
2023-03-02T14:32:31.827Z,16.27
2023-03-02T14:35:02.015Z,14.80
2023-03-02T14:37:32.641Z,15.90
2023-03-02T14:40:02.859Z,14.60
2023-03-02T14:42:35.508Z,13.60
2023-03-02T14:45:05.572Z,15.50
2023-03-02T14:47:37.535Z,15.13
2023-03-02T14:50:08.167Z,16.07
2023-03-02T14:52:43.811Z,15.47
2023-03-02T14:55:19.472Z,16.17
2023-03-02T14:57:56.254Z,17.00
2023-03-02T15:00:26.648Z,13.60
2023-03-02T15:02:56.864Z,15.47
2023-03-02T15:05:35.320Z,17.67
2023-03-02T15:08:05.402Z,16.77
2023-03-02T15:10:37.035Z,17.47
2023-03-02T15:13:09.529Z,15.73
2023-03-02T15:15:39.587Z,15.20
2023-03-02T15:18:09.765Z,19.67
2023-03-02T15:20:40.361Z,19.57
2023-03-02T15:23:10.524Z,16.73
2023-03-02T15:25:52.471Z,14.33
2023-03-02T15:28:41.845Z,16.03
2023-03-02T15:31:21.445Z,15.27
2023-03-02T15:33:52.263Z,15.50
2023-03-02T15:36:26.645Z,16.87
2023-03-02T15:39:04.216Z,17.97
2023-03-02T15:41:34.567Z,20.33
2023-03-02T15:44:48.469Z,17.27
2023-03-02T15:47:18.477Z,16.43
2023-03-02T15:49:48.574Z,15.37
2023-03-02T15:52:20.167Z,13.57
2023-03-02T15:54:50.234Z,15.00
2023-03-02T15:57:24.058Z,16.20
2023-03-02T15:59:56.632Z,14.17
2023-03-02T16:02:33.329Z,17.30
2023-03-02T16:05:18.238Z,13.73
2023-03-02T16:07:48.381Z,13.30
2023-03-02T16:10:19.877Z,15.67
2023-03-02T16:12:49.907Z,12.73
2023-03-02T16:15:22.324Z,14.57
2023-03-02T16:17:52.212Z,14.30
2023-03-02T16:20:22.240Z,13.90
2023-03-02T16:22:52.038Z,18.77
2023-03-02T16:25:21.856Z,12.93
2023-03-02T16:27:51.664Z,14.73
2023-03-02T16:30:24.276Z,15.40
2023-03-02T16:32:54.087Z,16.03
2023-03-02T16:35:23.958Z,19.77
2023-03-02T16:37:53.747Z,14.93
2023-03-02T16:40:24.480Z,14.27
2023-03-02T16:42:54.336Z,14.13
2023-03-02T16:45:27.055Z,15.63
2023-03-02T16:47:57.069Z,13.47
2023-03-02T16:50:26.983Z,15.87
2023-03-02T16:52:56.817Z,13.40
2023-03-02T16:55:26.900Z,14.97
2023-03-02T16:57:56.743Z,21.47
2023-03-02T17:00:31.383Z,18.10
2023-03-02T17:03:01.458Z,15.63
2023-03-02T17:05:31.302Z,15.67
2023-03-02T17:08:02.885Z,16.53
2023-03-02T17:10:32.678Z,19.63
2023-03-02T17:13:02.481Z,17.10
2023-03-02T17:15:35.229Z,16.50
2023-03-02T17:18:05.654Z,14.17
2023-03-02T17:20:35.533Z,15.40
2023-03-02T17:23:06.161Z,19.60
2023-03-02T17:25:35.979Z,16.70
2023-03-02T17:28:06.072Z,15.10
2023-03-02T17:30:38.501Z,17.83
2023-03-02T17:33:08.387Z,17.13
2023-03-02T17:35:38.627Z,18.57
2023-03-02T17:38:09.226Z,17.20
2023-03-02T17:40:39.178Z,20.17
2023-03-02T17:43:09.233Z,18.90
2023-03-02T17:45:42.439Z,18.47
2023-03-02T17:48:12.372Z,19.77
2023-03-02T17:50:42.609Z,16.43
2023-03-02T17:53:12.491Z,19.03
2023-03-02T17:55:42.437Z,20.40
2023-03-02T17:58:12.563Z,20.63
2023-03-02T18:01:40.469Z,18.10
2023-03-02T18:03:45.313Z,14.70
2023-03-02T18:06:20.331Z,15.00
2023-03-02T18:08:54.563Z,16.93
2023-03-02T18:11:26.712Z,17.73
2023-03-02T18:13:59.088Z,16.40
2023-03-02T18:16:34.150Z,15.00
2023-03-02T18:19:05.441Z,16.03
2023-03-02T18:21:36.715Z,13.43
2023-03-02T18:24:08.088Z,13.73
2023-03-02T18:26:38.333Z,16.53
2023-03-02T18:29:08.987Z,14.80
2023-03-02T18:31:41.802Z,17.70
2023-03-02T18:34:13.711Z,12.70
2023-03-02T18:36:44.043Z,13.37
2023-03-02T18:39:14.025Z,16.03
2023-03-02T18:41:56.023Z,14.23
2023-03-02T18:44:28.502Z,14.93
2023-03-02T18:47:04.068Z,12.40
2023-03-02T18:49:46.666Z,13.00
2023-03-02T18:52:40.861Z,16.37
2023-03-02T18:55:42.633Z,13.57
2023-03-02T18:58:25.992Z,13.50
2023-03-02T19:00:59.903Z,17.93
2023-03-02T19:03:53.291Z,13.83
2023-03-02T19:06:43.107Z,14.13
2023-03-02T19:09:16.565Z,17.43
2023-03-02T19:11:46.666Z,18.23
2023-03-02T19:14:24.989Z,14.70
2023-03-02T19:16:59.251Z,19.60
2023-03-02T19:19:38.599Z,17.73
2023-03-02T19:22:11.424Z,19.03
2023-03-02T19:24:44.130Z,20.33
2023-03-02T19:27:21.278Z,18.07
2023-03-02T19:29:54.417Z,21.60
2023-03-02T19:32:27.311Z,17.43
2023-03-02T19:37:48.437Z,21.73
2023-03-02T19:40:22.568Z,21.77
2023-03-02T19:42:56.183Z,21.03
2023-03-02T19:45:33.082Z,20.10
2023-03-02T19:48:15.690Z,21.60
2023-03-02T19:50:57.037Z,21.67
2023-03-02T19:53:33.498Z,19.63
2023-03-02T19:56:10.932Z,20.90
2023-03-02T19:58:47.097Z,22.70
2023-03-02T20:01:22.123Z,21.10
2023-03-02T20:03:52.833Z,22.27
2023-03-02T20:06:27.333Z,21.20
2023-03-02T20:09:00.127Z,25.73
2023-03-02T20:11:31.063Z,25.70
2023-03-02T20:14:05.733Z,24.17
2023-03-02T20:16:44.269Z,22.17
2023-03-02T20:19:15.327Z,25.03
2023-03-02T20:21:52.101Z,20.83
2023-03-02T20:24:21.878Z,21.27
2023-03-02T20:26:51.941Z,23.50
2023-03-02T20:29:22.471Z,21.90
2023-03-02T20:31:53.119Z,21.13
2023-03-02T20:34:23.069Z,20.70
2023-03-02T20:36:55.666Z,23.47
2023-03-02T20:39:28.716Z,26.53
2023-03-02T20:41:59.633Z,20.07
2023-03-02T20:44:31.275Z,23.03
2023-03-02T20:47:03.654Z,22.47
2023-03-02T20:49:34.032Z,23.07
2023-03-02T20:52:07.259Z,20.67
2023-03-02T20:54:40.001Z,21.20
2023-03-02T20:57:10.906Z,22.47
2023-03-02T20:59:41.136Z,25.10
2023-03-02T21:02:14.346Z,25.07
2023-03-02T21:04:44.569Z,23.23
2023-03-02T21:07:18.085Z,18.80
2023-03-02T21:09:48.149Z,22.23
2023-03-02T21:12:18.217Z,22.27
2023-03-02T21:14:48.267Z,21.90
2023-03-02T21:17:19.815Z,22.17
2023-03-02T21:19:51.327Z,22.97
2023-03-02T21:22:27.595Z,32.00
2023-03-02T21:24:58.924Z,21.87
2023-03-02T21:27:32.891Z,22.43
2023-03-02T21:30:04.083Z,17.00
2023-03-02T21:32:33.985Z,20.33
2023-03-02T21:35:04.018Z,17.97
2023-03-02T21:37:40.439Z,21.00
2023-03-02T21:40:11.831Z,17.10
2023-03-02T21:42:41.670Z,16.73
2023-03-02T21:45:12.594Z,17.83
2023-03-02T21:47:44.734Z,17.67
2023-03-02T21:50:17.723Z,17.93
2023-03-02T21:52:50.142Z,17.70
2023-03-02T21:55:20.357Z,18.90
2023-03-02T21:57:50.836Z,15.67
2023-03-02T22:00:23.563Z,18.07
2023-03-02T22:02:53.552Z,16.67
2023-03-02T22:05:24.047Z,16.20
2023-03-02T22:07:57.618Z,16.13
2023-03-02T22:10:32.979Z,14.43
2023-03-02T22:13:17.625Z,15.20
2023-03-02T22:15:48.201Z,14.90
2023-03-02T22:18:19.985Z,12.70
2023-03-02T22:20:52.753Z,11.00
2023-03-02T22:23:27.608Z,11.93
2023-03-02T22:26:03.894Z,10.80
2023-03-02T22:28:39.397Z,9.53
2023-03-02T22:31:19.255Z,10.67
2023-03-02T22:33:49.129Z,9.53
2023-03-02T22:36:24.184Z,7.50
2023-03-02T22:39:04.016Z,7.50
2023-03-02T22:41:33.824Z,7.37
2023-03-02T22:44:03.629Z,8.70
2023-03-02T22:46:34.999Z,8.73
2023-03-02T22:49:05.247Z,7.83
2023-03-02T22:51:37.219Z,9.80
2023-03-02T22:54:23.074Z,9.53
2023-03-02T22:56:57.118Z,10.17
2023-03-02T22:59:28.410Z,7.60
2023-03-02T23:02:01.699Z,8.27
2023-03-02T23:04:34.523Z,8.10
2023-03-02T23:07:11.588Z,7.90
2023-03-02T23:09:44.014Z,7.77
2023-03-02T23:12:21.190Z,9.20
2023-03-02T23:14:52.566Z,8.87
2023-03-02T23:17:33.742Z,12.37
2023-03-02T23:20:06.821Z,8.67
2023-03-02T23:22:37.288Z,8.17
2023-03-02T23:25:11.667Z,8.00
2023-03-02T23:27:41.556Z,7.53
2023-03-02T23:30:12.874Z,11.47
2023-03-02T23:32:42.764Z,7.80
2023-03-02T23:35:13.101Z,8.30
2023-03-02T23:37:42.995Z,7.03
2023-03-02T23:40:17.006Z,8.63
2023-03-02T23:42:46.766Z,8.50
2023-03-02T23:45:16.764Z,7.97
2023-03-02T23:47:47.379Z,8.13
2023-03-02T23:50:17.488Z,7.40
2023-03-02T23:52:47.550Z,7.37
2023-03-02T23:55:20.055Z,6.63
2023-03-02T23:57:49.926Z,6.30
